Time;durP1;ratioP1;P1;durP2;ratioP2;P2;SDS_P1;SDS_P2;PMS_P1;PMS_P2;Temp;Humidity;BMP_temperature;BMP_pressure;BME280_temperature;BME280_humidity;BME280_pressure;Samples;Min_cycle;Max_cycle;Signal;HPM_P1;HPM_P2
2021/05/06 00:32:02;;;;;;;4.45;2.28;;;;;;;;;;5079918;28;20032;-48
2021/05/06 00:34:28;;;;;;;3.35;1.70;;;;;;;;;;5089111;27;20072;-50
2021/05/06 00:36:54;;;;;;;5.75;1.95;;;;;;;;;;5102272;27;20095;-54
2021/05/06 00:39:25;;;;;;;4.85;2.17;;;;;;;;;;5097699;27;20040;-53
2021/05/06 00:42:14;;;;;;;3.47;1.92;;;;;;;;;;5102326;27;20047;-52
2021/05/06 01:01:37;;;;;;;5.13;2.17;;;;;;;;;;5095075;28;20033;-49
2021/05/06 01:04:19;;;;;;;4.97;2.35;;;;;;;;;;5080428;28;20052;-52
2021/05/06 01:06:54;;;;;;;5.80;2.60;;;;;;;;;;5101496;28;20039;-52
2021/05/06 01:09:22;;;;;;;5.07;2.45;;;;;;;;;;5100533;28;20044;-58
2021/05/06 01:11:53;;;;;;;5.85;2.65;;;;;;;;;;5079312;28;20043;-55
2021/05/06 01:14:19;;;;;;;4.47;2.45;;;;;;;;;;5096734;28;20040;-57
2021/05/06 01:16:46;;;;;;;5.80;2.63;;;;;;;;;;5094136;28;20063;-53
2021/05/06 01:19:14;;;;;;;5.97;2.70;;;;;;;;;;5117969;27;20031;-58
2021/05/06 01:21:41;;;;;;;6.03;2.88;;;;;;;;;;5082197;28;20091;-59
2021/05/06 01:24:07;;;;;;;5.32;2.67;;;;;;;;;;5081178;28;20028;-55
2021/05/06 01:26:38;;;;;;;5.60;2.95;;;;;;;;;;5062822;28;20041;-57
2021/05/06 01:29:05;;;;;;;6.53;2.75;;;;;;;;;;5059970;28;20033;-56
2021/05/06 01:31:33;;;;;;;5.13;2.38;;;;;;;;;;5056342;28;20044;-55
2021/05/06 01:34:07;;;;;;;5.20;2.47;;;;;;;;;;5060936;28;20041;-56
2021/05/06 01:36:36;;;;;;;5.20;2.50;;;;;;;;;;5056898;28;20037;-50
2021/05/06 01:42:01;;;;;;;4.97;2.28;;;;;;;;;;5009275;28;20033;-55
2021/05/06 01:47:20;;;;;;;4.53;2.28;;;;;;;;;;5049861;28;20078;-49
2021/05/06 01:50:00;;;;;;;4.90;2.65;;;;;;;;;;5061645;28;20036;-47
2021/05/06 01:58:15;;;;;;;6.20;2.95;;;;;;;;;;5055422;28;20033;-53
2021/05/06 02:00:44;;;;;;;6.40;3.60;;;;;;;;;;5060101;28;20051;-53
2021/05/06 02:03:10;;;;;;;7.05;3.65;;;;;;;;;;5057928;28;20329;-54
2021/05/06 02:05:36;;;;;;;7.18;3.88;;;;;;;;;;5060925;28;20041;-49
2021/05/06 02:08:02;;;;;;;7.13;3.47;;;;;;;;;;5056769;28;20060;-51
2021/05/06 02:10:29;;;;;;;8.55;3.60;;;;;;;;;;5058972;28;20142;-49
2021/05/06 02:12:55;;;;;;;7.85;3.38;;;;;;;;;;5060480;28;20041;-49
2021/05/06 02:15:24;;;;;;;8.70;3.78;;;;;;;;;;5065209;28;20058;-51
2021/05/06 02:17:50;;;;;;;8.02;3.53;;;;;;;;;;5061596;28;20051;-47
2021/05/06 02:20:16;;;;;;;8.00;3.80;;;;;;;;;;5064198;28;20049;-49
2021/05/06 02:22:42;;;;;;;7.78;3.60;;;;;;;;;;5059603;28;20048;-49
2021/05/06 02:25:09;;;;;;;7.97;4.20;;;;;;;;;;5073028;28;20059;-50
2021/05/06 02:27:36;;;;;;;7.28;3.35;;;;;;;;;;5086098;28;20032;-51
2021/05/06 02:30:03;;;;;;;9.30;4.13;;;;;;;;;;5084081;28;20045;-52
2021/05/06 02:32:29;;;;;;;6.95;3.55;;;;;;;;;;5085276;28;20048;-55
2021/05/06 02:34:55;;;;;;;8.30;3.42;;;;;;;;;;5081916;28;20039;-53
2021/05/06 02:37:21;;;;;;;6.80;3.70;;;;;;;;;;5103560;28;20196;-51
2021/05/06 02:39:47;;;;;;;7.55;3.28;;;;;;;;;;5087846;28;20056;-54
2021/05/06 02:42:13;;;;;;;7.80;3.60;;;;;;;;;;5105431;28;20104;-54
2021/05/06 02:44:40;;;;;;;8.00;4.40;;;;;;;;;;5103299;28;20043;-57
2021/05/06 02:47:09;;;;;;;7.47;3.70;;;;;;;;;;5106865;28;20043;-52
2021/05/06 02:49:36;;;;;;;6.68;3.22;;;;;;;;;;5117788;27;20051;-56
2021/05/06 02:52:06;;;;;;;7.97;3.58;;;;;;;;;;5123269;27;20043;-53
2021/05/06 02:54:37;;;;;;;8.35;3.75;;;;;;;;;;5090456;28;20101;-58
2021/05/06 02:57:09;;;;;;;7.93;3.60;;;;;;;;;;5084706;28;20050;-54
2021/05/06 03:05:00;;;;;;;7.18;3.67;;;;;;;;;;5091563;28;20045;-51
2021/05/06 03:07:29;;;;;;;8.35;3.97;;;;;;;;;;5123582;27;20039;-54
2021/05/06 03:10:01;;;;;;;7.95;3.67;;;;;;;;;;5113915;27;20032;-50
2021/05/06 03:12:39;;;;;;;7.63;3.53;;;;;;;;;;5085474;28;20040;-54
2021/05/06 03:23:15;;;;;;;7.32;4.07;;;;;;;;;;5086835;28;20031;-54
2021/05/06 03:25:41;;;;;;;7.13;4.10;;;;;;;;;;5092723;28;20072;-52
2021/05/06 03:28:10;;;;;;;8.40;4.18;;;;;;;;;;5106092;28;20095;-53
2021/05/06 03:31:03;;;;;;;7.32;4.10;;;;;;;;;;5115537;27;20068;-54
2021/05/06 03:41:59;;;;;;;8.25;3.80;;;;;;;;;;5075087;28;20039;-50
2021/05/06 04:15:22;;;;;;;9.30;4.70;;;;;;;;;;5059559;28;20032;-56
2021/05/06 04:17:57;;;;;;;9.80;4.60;;;;;;;;;;5086253;28;20493;-49
2021/05/06 04:26:12;;;;;;;9.35;4.97;;;;;;;;;;5102769;28;20055;-58
2021/05/06 04:36:53;;;;;;;10.25;5.20;;;;;;;;;;5083145;28;20067;-54
2021/05/06 04:39:28;;;;;;;11.43;5.40;;;;;;;;;;5114513;27;20061;-54
2021/05/06 04:42:04;;;;;;;10.02;5.47;;;;;;;;;;5104969;28;20044;-52
2021/05/06 04:55:47;;;;;;;12.85;6.80;;;;;;;;;;5073798;28;20039;-48
2021/05/06 05:03:51;;;;;;;15.10;7.57;;;;;;;;;;5062243;28;20028;-51
2021/05/06 05:06:19;;;;;;;15.88;7.25;;;;;;;;;;5102374;28;20052;-53
2021/05/06 05:08:47;;;;;;;13.32;7.50;;;;;;;;;;5082257;28;20044;-55
2021/05/06 05:11:33;;;;;;;19.23;9.85;;;;;;;;;;5070417;28;20056;-49
2021/05/06 05:14:25;;;;;;;18.70;9.10;;;;;;;;;;5079533;28;20076;-56
2021/05/06 05:19:56;;;;;;;15.65;7.45;;;;;;;;;;5090742;27;20071;-60
2021/05/06 05:25:07;;;;;;;15.25;7.97;;;;;;;;;;5079502;28;20051;-54
2021/05/06 05:27:34;;;;;;;14.30;7.65;;;;;;;;;;5070377;28;20064;-50
2021/05/06 05:30:00;;;;;;;16.85;7.75;;;;;;;;;;5073308;28;20060;-52
2021/05/06 05:32:26;;;;;;;18.52;8.02;;;;;;;;;;5079826;28;20039;-53
2021/05/06 05:34:57;;;;;;;17.50;8.63;;;;;;;;;;5080334;28;20080;-56
2021/05/06 05:37:25;;;;;;;16.90;8.63;;;;;;;;;;5095706;28;20133;-50
2021/05/06 05:39:59;;;;;;;16.10;8.67;;;;;;;;;;5097601;28;20478;-57
2021/05/06 05:42:32;;;;;;;16.52;8.18;;;;;;;;;;5091733;28;20069;-53
2021/05/06 05:55:53;;;;;;;19.45;9.90;;;;;;;;;;5105981;27;20059;-55
2021/05/06 05:58:20;;;;;;;19.15;10.48;;;;;;;;;;5107221;27;20130;-57
2021/05/06 06:00:46;;;;;;;26.58;10.45;;;;;;;;;;5103243;27;20063;-56
2021/05/06 06:03:12;;;;;;;28.17;13.75;;;;;;;;;;5106097;27;20059;-54
2021/05/06 06:05:39;;;;;;;20.95;10.55;;;;;;;;;;5105683;27;20084;-52
2021/05/06 06:08:05;;;;;;;17.30;9.70;;;;;;;;;;5101520;27;20051;-50
2021/05/06 06:10:31;;;;;;;15.63;8.93;;;;;;;;;;5109145;27;20054;-55
2021/05/06 06:12:58;;;;;;;18.15;9.38;;;;;;;;;;5113091;27;20031;-51
2021/05/06 06:15:35;;;;;;;17.08;9.38;;;;;;;;;;5120825;27;20051;-56
2021/05/06 06:18:10;;;;;;;18.63;8.32;;;;;;;;;;5121631;27;20046;-58
2021/05/06 06:20:38;;;;;;;20.52;9.25;;;;;;;;;;5105477;28;20039;-56
2021/05/06 06:23:04;;;;;;;17.23;9.15;;;;;;;;;;5104540;28;20050;-52
2021/05/06 06:25:30;;;;;;;16.70;8.63;;;;;;;;;;5103285;28;20120;-56
2021/05/06 06:27:56;;;;;;;19.85;10.32;;;;;;;;;;5102111;27;20047;-51
2021/05/06 06:30:22;;;;;;;19.83;9.82;;;;;;;;;;5103128;28;20046;-54
2021/05/06 06:32:49;;;;;;;18.33;9.23;;;;;;;;;;5101800;28;20039;-53
2021/05/06 06:35:19;;;;;;;16.35;9.32;;;;;;;;;;5101284;28;20048;-53
2021/05/06 06:37:45;;;;;;;17.70;9.23;;;;;;;;;;5099028;28;20093;-55
2021/05/06 06:40:13;;;;;;;17.05;8.98;;;;;;;;;;5104677;27;20036;-53
2021/05/06 06:42:41;;;;;;;19.33;9.33;;;;;;;;;;5099622;28;20036;-54
2021/05/06 06:45:08;;;;;;;20.70;9.02;;;;;;;;;;5103783;28;20084;-55
2021/05/06 06:47:34;;;;;;;14.63;8.27;;;;;;;;;;5103181;28;20044;-54
2021/05/06 06:50:00;;;;;;;16.00;8.73;;;;;;;;;;5099699;27;20052;-50
2021/05/06 06:52:26;;;;;;;14.80;6.50;;;;;;;;;;5104724;28;20040;-52
2021/05/06 06:54:56;;;;;;;12.55;6.45;;;;;;;;;;5101418;28;20043;-55
2021/05/06 06:57:22;;;;;;;14.65;6.93;;;;;;;;;;5104007;28;20112;-50
2021/05/06 06:59:48;;;;;;;14.77;7.53;;;;;;;;;;5100502;28;20047;-51
2021/05/06 07:02:14;;;;;;;14.63;6.97;;;;;;;;;;5102979;28;20036;-58
2021/05/06 07:04:41;;;;;;;17.50;9.30;;;;;;;;;;5099834;28;20513;-55
2021/05/06 07:07:07;;;;;;;13.90;7.43;;;;;;;;;;5102537;28;20043;-55
2021/05/06 07:09:34;;;;;;;11.65;6.43;;;;;;;;;;5098737;28;20036;-57
2021/05/06 07:12:00;;;;;;;9.23;4.80;;;;;;;;;;5103308;28;20049;-55
2021/05/06 07:14:34;;;;;;;11.80;5.28;;;;;;;;;;5100293;28;20045;-58
2021/05/06 07:17:01;;;;;;;10.38;5.05;;;;;;;;;;5108389;27;20104;-53
2021/05/06 07:19:27;;;;;;;12.23;6.10;;;;;;;;;;5099325;28;20056;-58
2021/05/06 07:21:54;;;;;;;11.63;5.57;;;;;;;;;;5102935;27;20036;-60
2021/05/06 07:24:20;;;;;;;10.75;5.43;;;;;;;;;;5100667;27;20124;-55
2021/05/06 07:26:46;;;;;;;11.50;5.22;;;;;;;;;;5102651;28;20055;-58
2021/05/06 07:29:15;;;;;;;10.60;5.43;;;;;;;;;;5100794;28;20032;-56
2021/05/06 07:31:42;;;;;;;8.73;4.13;;;;;;;;;;5101020;27;20036;-56
2021/05/06 07:34:07;;;;;;;8.25;3.92;;;;;;;;;;5101282;28;20036;-58
2021/05/06 07:36:33;;;;;;;9.48;4.63;;;;;;;;;;5098611;28;20044;-57
2021/05/06 07:38:59;;;;;;;7.97;4.15;;;;;;;;;;5102558;28;20044;-52
2021/05/06 07:41:25;;;;;;;8.35;3.85;;;;;;;;;;5099979;28;20043;-55
2021/05/06 07:43:52;;;;;;;7.60;3.88;;;;;;;;;;5102334;28;20043;-52
2021/05/06 07:46:18;;;;;;;6.75;3.33;;;;;;;;;;5075909;28;20036;-60
2021/05/06 07:48:44;;;;;;;8.18;3.28;;;;;;;;;;5104173;27;20051;-56
2021/05/06 07:51:10;;;;;;;7.65;3.67;;;;;;;;;;5099293;28;20059;-51
2021/05/06 07:53:41;;;;;;;9.70;3.50;;;;;;;;;;5103612;27;20059;-58
2021/05/06 07:56:08;;;;;;;7.50;3.65;;;;;;;;;;5100112;27;20116;-55
2021/05/06 07:58:33;;;;;;;10.05;3.90;;;;;;;;;;5077807;28;20063;-51
2021/05/06 08:01:00;;;;;;;10.82;4.65;;;;;;;;;;5100204;27;20387;-53
2021/05/06 08:03:26;;;;;;;9.18;3.92;;;;;;;;;;5104687;27;20116;-51
2021/05/06 08:05:56;;;;;;;8.25;4.28;;;;;;;;;;5097859;28;20063;-54
2021/05/06 08:08:24;;;;;;;9.90;5.20;;;;;;;;;;5105014;27;20522;-57
2021/05/06 08:10:50;;;;;;;9.30;5.03;;;;;;;;;;5101287;28;20044;-54
2021/05/06 08:13:16;;;;;;;11.18;4.65;;;;;;;;;;5099159;28;20043;-50
2021/05/06 08:15:42;;;;;;;10.68;4.65;;;;;;;;;;5103456;28;20044;-51
2021/05/06 08:18:09;;;;;;;10.77;4.75;;;;;;;;;;5098804;27;20040;-54
2021/05/06 08:20:35;;;;;;;9.80;4.47;;;;;;;;;;5102565;28;20042;-51
2021/05/06 08:23:01;;;;;;;12.77;6.10;;;;;;;;;;5099812;28;20031;-52
2021/05/06 08:25:27;;;;;;;16.15;7.40;;;;;;;;;;5109940;27;20083;-52
2021/05/06 08:27:53;;;;;;;10.95;6.00;;;;;;;;;;5101361;28;20038;-57
2021/05/06 08:30:19;;;;;;;11.88;6.53;;;;;;;;;;5105085;28;20044;-50
2021/05/06 08:32:45;;;;;;;13.02;6.72;;;;;;;;;;5101521;27;20039;-58
2021/05/06 08:35:13;;;;;;;14.48;6.55;;;;;;;;;;5122572;27;20056;-53
2021/05/06 08:37:39;;;;;;;15.90;7.45;;;;;;;;;;5100316;27;20055;-54
2021/05/06 08:40:06;;;;;;;16.30;7.22;;;;;;;;;;5104040;27;20056;-59
2021/05/06 08:42:32;;;;;;;13.95;6.88;;;;;;;;;;5118218;27;20371;-54
2021/05/06 08:44:58;;;;;;;13.90;7.63;;;;;;;;;;5105680;27;20075;-53
2021/05/06 08:47:24;;;;;;;18.98;8.25;;;;;;;;;;5100682;27;20052;-54
2021/05/06 08:49:51;;;;;;;14.07;7.35;;;;;;;;;;5103403;27;20035;-52
2021/05/06 08:52:20;;;;;;;15.63;8.00;;;;;;;;;;5103789;27;20047;-53
2021/05/06 08:54:46;;;;;;;16.58;8.00;;;;;;;;;;5094776;27;20070;-53
2021/05/06 08:57:13;;;;;;;13.90;7.22;;;;;;;;;;5105491;27;20043;-54
2021/05/06 08:59:39;;;;;;;14.20;7.45;;;;;;;;;;5099509;27;20055;-53
2021/05/06 09:02:05;;;;;;;14.45;7.28;;;;;;;;;;5104362;27;20063;-53
2021/05/06 09:04:32;;;;;;;13.25;6.63;;;;;;;;;;5101616;27;20123;-52
2021/05/06 09:06:58;;;;;;;13.35;6.50;;;;;;;;;;5102855;28;20056;-54
2021/05/06 09:09:26;;;;;;;13.10;5.97;;;;;;;;;;5089387;28;20044;-51
2021/05/06 09:12:14;;;;;;;11.88;5.88;;;;;;;;;;5095498;28;20112;-57
2021/05/06 09:14:41;;;;;;;11.75;5.97;;;;;;;;;;5090184;28;20059;-57
2021/05/06 09:17:08;;;;;;;15.77;6.13;;;;;;;;;;5083485;28;20043;-54
2021/05/06 09:19:34;;;;;;;10.25;5.20;;;;;;;;;;5106280;28;20174;-53
2021/05/06 09:22:00;;;;;;;12.85;6.47;;;;;;;;;;5105192;28;20109;-55
2021/05/06 09:24:29;;;;;;;16.15;6.32;;;;;;;;;;5116020;27;20128;-56
2021/05/06 09:26:56;;;;;;;13.48;6.15;;;;;;;;;;5098689;28;20051;-56
2021/05/06 09:29:29;;;;;;;16.45;7.10;;;;;;;;;;5097885;28;20128;-54
2021/05/06 09:32:07;;;;;;;10.07;5.30;;;;;;;;;;5101104;28;20048;-55
2021/05/06 09:34:35;;;;;;;10.57;5.22;;;;;;;;;;5097588;28;20051;-54
2021/05/06 09:37:02;;;;;;;10.57;4.80;;;;;;;;;;5099105;28;20036;-51
2021/05/06 09:39:29;;;;;;;12.20;5.32;;;;;;;;;;5098592;28;20032;-53
2021/05/06 09:42:04;;;;;;;12.77;6.25;;;;;;;;;;5102436;28;20044;-52
2021/05/06 09:44:49;;;;;;;11.38;5.80;;;;;;;;;;5102412;28;20077;-54
2021/05/06 09:47:15;;;;;;;10.85;5.88;;;;;;;;;;5078638;28;20044;-53
2021/05/06 09:49:41;;;;;;;9.30;5.10;;;;;;;;;;5080211;28;20060;-51
2021/05/06 09:52:07;;;;;;;10.15;5.35;;;;;;;;;;5070344;28;20051;-56
2021/05/06 09:54:34;;;;;;;13.60;5.10;;;;;;;;;;5102143;28;20048;-51
2021/05/06 09:57:01;;;;;;;11.35;5.57;;;;;;;;;;5098942;28;20028;-50
2021/05/06 09:59:28;;;;;;;9.82;5.15;;;;;;;;;;5100704;28;20051;-59
2021/05/06 10:01:54;;;;;;;11.90;5.85;;;;;;;;;;5097180;28;20040;-55
2021/05/06 10:04:21;;;;;;;11.63;5.18;;;;;;;;;;5100956;28;20055;-59
2021/05/06 10:07:04;;;;;;;11.50;5.82;;;;;;;;;;5098385;28;20036;-58
2021/05/06 10:09:30;;;;;;;10.95;5.47;;;;;;;;;;5099093;28;20074;-58
2021/05/06 10:11:57;;;;;;;11.52;5.50;;;;;;;;;;5097551;28;20441;-55
2021/05/06 10:14:24;;;;;;;11.98;6.05;;;;;;;;;;5101178;28;20040;-61
2021/05/06 10:16:50;;;;;;;13.95;5.55;;;;;;;;;;5095937;28;20124;-56
2021/05/06 10:19:17;;;;;;;9.85;5.68;;;;;;;;;;5099086;28;20044;-57
2021/05/06 10:21:43;;;;;;;9.15;4.95;;;;;;;;;;5095495;28;20044;-52
2021/05/06 10:24:10;;;;;;;10.10;5.55;;;;;;;;;;5101244;28;20117;-56
2021/05/06 10:26:37;;;;;;;11.02;6.03;;;;;;;;;;5095278;28;20036;-57
2021/05/06 10:29:04;;;;;;;10.82;5.63;;;;;;;;;;5099703;28;20044;-57
2021/05/06 10:31:30;;;;;;;11.73;5.88;;;;;;;;;;5087885;28;20038;-58
2021/05/06 10:33:56;;;;;;;10.45;5.05;;;;;;;;;;5100414;27;20038;-51
2021/05/06 10:36:22;;;;;;;9.98;4.68;;;;;;;;;;5103527;27;20039;-59
2021/05/06 10:38:49;;;;;;;11.38;6.13;;;;;;;;;;5099328;28;20040;-57
2021/05/06 10:41:29;;;;;;;10.68;5.25;;;;;;;;;;5104188;27;20039;-54
2021/05/06 10:43:55;;;;;;;9.65;5.03;;;;;;;;;;5101056;27;20551;-58
2021/05/06 10:46:43;;;;;;;16.67;7.20;;;;;;;;;;5104303;27;20039;-58
2021/05/06 10:49:09;;;;;;;10.95;5.82;;;;;;;;;;5080012;28;20059;-56
2021/05/06 10:51:42;;;;;;;10.55;5.22;;;;;;;;;;5101828;28;20048;-59
2021/05/06 10:54:26;;;;;;;9.98;5.50;;;;;;;;;;5100864;28;20040;-58
2021/05/06 10:56:52;;;;;;;11.85;5.38;;;;;;;;;;5092354;28;20422;-60
2021/05/06 10:59:25;;;;;;;9.45;5.10;;;;;;;;;;5099733;28;20096;-59
2021/05/06 11:01:52;;;;;;;8.85;4.32;;;;;;;;;;5102822;27;20466;-58
2021/05/06 11:04:31;;;;;;;7.78;4.15;;;;;;;;;;5099764;28;20360;-61
2021/05/06 11:06:56;;;;;;;;;;;;;;;;;;5102351;28;20090;-58
2021/05/06 11:09:42;;;;;;;8.93;4.65;;;;;;;;;;5098599;28;20029;-57
2021/05/06 11:12:18;;;;;;;10.07;4.78;;;;;;;;;;5102932;27;20356;-55
2021/05/06 11:14:59;;;;;;;11.10;4.70;;;;;;;;;;5097430;27;20493;-56
2021/05/06 11:17:26;;;;;;;11.18;5.45;;;;;;;;;;5101198;27;20067;-53
2021/05/06 11:19:53;;;;;;;12.13;5.03;;;;;;;;;;5100818;27;20040;-53
2021/05/06 11:22:33;;;;;;;11.20;6.03;;;;;;;;;;5104549;27;20044;-55
2021/05/06 11:24:59;;;;;;;9.18;5.05;;;;;;;;;;5099884;28;20051;-51
2021/05/06 11:27:34;;;;;;;8.40;4.93;;;;;;;;;;5103032;27;20116;-59
2021/05/06 11:30:28;;;;;;;9.85;5.38;;;;;;;;;;5100830;28;20045;-52
2021/05/06 11:32:55;;;;;;;13.07;6.03;;;;;;;;;;5104253;28;20043;-57
2021/05/06 11:35:21;;;;;;;12.75;5.68;;;;;;;;;;5099054;28;20039;-61
2021/05/06 11:37:51;;;;;;;14.90;5.60;;;;;;;;;;5102140;28;20580;-55
2021/05/06 11:40:22;;;;;;;8.15;4.47;;;;;;;;;;5089411;28;20028;-57
2021/05/06 11:42:48;;;;;;;8.07;3.50;;;;;;;;;;5104966;27;20051;-54
2021/05/06 11:45:19;;;;;;;5.55;2.78;;;;;;;;;;5100387;27;20028;-58
2021/05/06 11:47:46;;;;;;;4.50;2.20;;;;;;;;;;5101617;28;20036;-60
2021/05/06 11:50:17;;;;;;;4.88;2.28;;;;;;;;;;5090479;28;20036;-57
2021/05/06 11:52:43;;;;;;;9.00;2.38;;;;;;;;;;5102126;28;20043;-56
2021/05/06 11:55:25;;;;;;;4.13;2.25;;;;;;;;;;5101270;27;20096;-59
2021/05/06 11:57:51;;;;;;;7.97;2.40;;;;;;;;;;5102104;28;20040;-56
2021/05/06 12:00:17;;;;;;;6.95;2.75;;;;;;;;;;5102068;27;20039;-59
2021/05/06 12:02:43;;;;;;;6.00;2.55;;;;;;;;;;5103959;27;20521;-60
2021/05/06 12:05:10;;;;;;;6.18;2.63;;;;;;;;;;5098525;28;20169;-59
2021/05/06 12:07:38;;;;;;;4.85;2.42;;;;;;;;;;5081183;28;20044;-58
2021/05/06 12:10:07;;;;;;;6.95;2.47;;;;;;;;;;5082353;28;20044;-59
2021/05/06 12:12:33;;;;;;;4.95;2.15;;;;;;;;;;5099146;27;20043;-59
2021/05/06 12:14:59;;;;;;;9.75;2.15;;;;;;;;;;5102525;28;20117;-58
2021/05/06 12:17:25;;;;;;;7.05;2.17;;;;;;;;;;5097763;27;20279;-57
2021/05/06 12:19:51;;;;;;;5.55;2.45;;;;;;;;;;5102117;28;20040;-58
2021/05/06 12:22:18;;;;;;;5.45;2.38;;;;;;;;;;5099535;27;20024;-61
2021/05/06 12:24:48;;;;;;;5.85;2.58;;;;;;;;;;5102068;28;20129;-57
2021/05/06 12:27:15;;;;;;;4.00;2.15;;;;;;;;;;5088289;27;20040;-57
2021/05/06 12:29:41;;;;;;;6.00;2.20;;;;;;;;;;5101689;27;20035;-58
2021/05/06 12:32:15;;;;;;;6.82;2.47;;;;;;;;;;5099588;27;20047;-59
2021/05/06 12:34:41;;;;;;;5.50;2.35;;;;;;;;;;5101224;27;20104;-56
2021/05/06 12:37:07;;;;;;;5.18;2.78;;;;;;;;;;5097422;27;20035;-59
2021/05/06 12:39:33;;;;;;;4.47;2.50;;;;;;;;;;5102401;27;20039;-59
2021/05/06 12:42:03;;;;;;;5.15;2.50;;;;;;;;;;5099155;27;20028;-58
2021/05/06 12:44:37;;;;;;;5.20;2.38;;;;;;;;;;5103966;27;20343;-56
2021/05/06 12:47:17;;;;;;;6.03;2.80;;;;;;;;;;5099182;28;20068;-58
2021/05/06 12:49:44;;;;;;;6.20;2.95;;;;;;;;;;5101811;28;20461;-59
2021/05/06 12:52:25;;;;;;;7.15;3.10;;;;;;;;;;5100960;27;20044;-60
2021/05/06 12:54:53;;;;;;;6.30;2.65;;;;;;;;;;5102391;28;20040;-62
2021/05/06 12:57:20;;;;;;;5.15;2.60;;;;;;;;;;5097581;28;20051;-62
2021/05/06 12:59:49;;;;;;;6.05;2.50;;;;;;;;;;5102323;28;20046;-54
2021/05/06 13:02:15;;;;;;;;;;;;;;;;;;5103293;27;20679;-58
2021/05/06 13:04:42;;;;;;;6.32;2.60;;;;;;;;;;5097178;28;19912;-50
2021/05/06 13:07:08;;;;;;;6.28;2.80;;;;;;;;;;5102467;28;20051;-59
2021/05/06 13:09:38;;;;;;;6.57;2.85;;;;;;;;;;5096247;28;20052;-58
2021/05/06 13:12:09;;;;;;;4.63;2.35;;;;;;;;;;5102230;28;20234;-56
2021/05/06 13:14:43;;;;;;;4.75;2.45;;;;;;;;;;5097483;28;20044;-53
2021/05/06 13:17:21;;;;;;;4.18;2.40;;;;;;;;;;5101455;28;20036;-55
2021/05/06 13:19:47;;;;;;;5.37;2.80;;;;;;;;;;5096800;28;20032;-57
2021/05/06 13:22:13;;;;;;;6.15;3.00;;;;;;;;;;5103072;27;20064;-54
2021/05/06 13:24:40;;;;;;;5.80;2.63;;;;;;;;;;5097656;28;20062;-61
2021/05/06 13:27:13;;;;;;;6.00;2.90;;;;;;;;;;5091054;28;20489;-59
2021/05/06 13:29:48;;;;;;;6.28;2.42;;;;;;;;;;5097270;28;20054;-59
2021/05/06 13:32:14;;;;;;;6.25;2.58;;;;;;;;;;5103592;28;20055;-57
2021/05/06 13:34:52;;;;;;;6.32;2.72;;;;;;;;;;5097898;28;20084;-56
2021/05/06 13:37:18;;;;;;;5.03;2.28;;;;;;;;;;5098005;28;20055;-58
2021/05/06 13:39:44;;;;;;;5.75;2.65;;;;;;;;;;5096150;28;20055;-53
2021/05/06 13:42:10;;;;;;;7.13;2.45;;;;;;;;;;5101200;28;20046;-61
2021/05/06 13:44:36;;;;;;;6.35;2.75;;;;;;;;;;5096347;28;20099;-60
2021/05/06 13:47:06;;;;;;;7.38;2.67;;;;;;;;;;5099603;28;20044;-57
2021/05/06 13:49:32;;;;;;;4.95;2.60;;;;;;;;;;5098014;28;20088;-55
2021/05/06 13:51:59;;;;;;;4.93;2.72;;;;;;;;;;5099562;28;20089;-60
2021/05/06 13:54:27;;;;;;;6.10;3.10;;;;;;;;;;5097077;28;20135;-57
2021/05/06 13:56:53;;;;;;;6.95;3.15;;;;;;;;;;5079463;28;20029;-58
2021/05/06 13:59:19;;;;;;;8.82;3.17;;;;;;;;;;5079174;28;20045;-58
2021/05/06 14:01:51;;;;;;;5.93;3.03;;;;;;;;;;5098283;28;20072;-59
2021/05/06 14:04:18;;;;;;;6.32;2.92;;;;;;;;;;5100362;28;20093;-58
2021/05/06 14:06:44;;;;;;;4.90;2.75;;;;;;;;;;5097213;28;20052;-57
2021/05/06 14:09:15;;;;;;;5.32;2.78;;;;;;;;;;5103129;28;20112;-59
2021/05/06 14:11:40;;;;;;;6.97;3.20;;;;;;;;;;5101108;27;20047;-55
2021/05/06 14:14:07;;;;;;;6.60;3.25;;;;;;;;;;5104668;28;20036;-62
2021/05/06 14:16:32;;;;;;;8.98;3.35;;;;;;;;;;5100246;28;20028;-61
2021/05/06 14:18:58;;;;;;;6.38;2.78;;;;;;;;;;5103596;27;20698;-61
2021/05/06 14:21:26;;;;;;;6.75;3.15;;;;;;;;;;5101609;27;20482;-61
2021/05/06 14:23:52;;;;;;;12.65;3.03;;;;;;;;;;5103937;28;20044;-62
2021/05/06 14:26:18;;;;;;;7.07;3.20;;;;;;;;;;5100513;28;20048;-58
2021/05/06 14:28:44;;;;;;;10.20;4.07;;;;;;;;;;5103934;28;20118;-55
2021/05/06 14:31:10;;;;;;;7.80;3.33;;;;;;;;;;5100481;27;21897;-56
2021/05/06 14:33:36;;;;;;;5.57;2.75;;;;;;;;;;5104904;28;20053;-53
2021/05/06 14:36:05;;;;;;;7.63;2.95;;;;;;;;;;5093699;28;20048;-56
2021/05/06 14:38:32;;;;;;;6.65;3.20;;;;;;;;;;5084974;28;20032;-55
2021/05/06 14:40:58;;;;;;;6.20;2.83;;;;;;;;;;5086330;28;20048;-57
2021/05/06 14:43:24;;;;;;;5.53;3.00;;;;;;;;;;5097810;27;20070;-52
2021/05/06 14:45:50;;;;;;;5.95;3.08;;;;;;;;;;5104379;28;20051;-59
2021/05/06 14:48:16;;;;;;;5.40;2.83;;;;;;;;;;5099020;28;20047;-57
2021/05/06 14:50:42;;;;;;;6.28;2.97;;;;;;;;;;5103410;27;20043;-60
2021/05/06 14:53:08;;;;;;;7.53;3.20;;;;;;;;;;5100268;28;20043;-55
2021/05/06 14:55:35;;;;;;;6.53;3.00;;;;;;;;;;5103230;28;20141;-56
2021/05/06 14:58:03;;;;;;;6.47;3.40;;;;;;;;;;5101407;28;20142;-56
2021/05/06 15:00:29;;;;;;;5.93;3.40;;;;;;;;;;5104574;27;20051;-57
2021/05/06 15:02:56;;;;;;;6.18;2.90;;;;;;;;;;5098043;28;20083;-58
2021/05/06 15:05:23;;;;;;;6.13;3.10;;;;;;;;;;5104950;27;20046;-59
2021/05/06 15:07:49;;;;;;;6.60;3.00;;;;;;;;;;5099318;28;20088;-59
2021/05/06 15:10:15;;;;;;;6.30;3.40;;;;;;;;;;5103013;28;20472;-60
2021/05/06 15:12:43;;;;;;;6.00;3.10;;;;;;;;;;5100116;28;20062;-56
2021/05/06 15:15:10;;;;;;;5.20;2.67;;;;;;;;;;5102198;28;20040;-60
2021/05/06 15:17:36;;;;;;;6.45;3.30;;;;;;;;;;5102895;27;20047;-58
2021/05/06 15:20:02;;;;;;;8.25;3.60;;;;;;;;;;5100940;27;20402;-55
2021/05/06 15:22:28;;;;;;;6.22;3.45;;;;;;;;;;5104785;27;20492;-56
2021/05/06 15:24:54;;;;;;;6.60;3.80;;;;;;;;;;5101565;27;20101;-59
2021/05/06 15:27:20;;;;;;;12.27;4.38;;;;;;;;;;5101889;28;20050;-60
2021/05/06 15:29:48;;;;;;;9.40;3.47;;;;;;;;;;5097099;28;20072;-59
2021/05/06 15:32:14;;;;;;;5.32;2.72;;;;;;;;;;5108228;27;20032;-61
2021/05/06 15:34:40;;;;;;;6.50;3.65;;;;;;;;;;5106471;27;20088;-59
2021/05/06 15:37:06;;;;;;;8.35;4.20;;;;;;;;;;5111970;27;20047;-60
2021/05/06 15:39:32;;;;;;;8.35;4.13;;;;;;;;;;5107530;27;20042;-60
2021/05/06 15:41:58;;;;;;;8.95;4.65;;;;;;;;;;5109306;27;20347;-58
2021/05/06 15:44:26;;;;;;;9.13;4.30;;;;;;;;;;5105887;28;20043;-59
2021/05/06 15:46:58;;;;;;;7.22;3.58;;;;;;;;;;5108343;27;20047;-58
2021/05/06 15:49:24;;;;;;;7.00;3.42;;;;;;;;;;5084824;27;20077;-57
2021/05/06 15:51:50;;;;;;;6.88;3.42;;;;;;;;;;5110523;27;20032;-61
2021/05/06 15:54:17;;;;;;;5.85;3.28;;;;;;;;;;5107656;27;20031;-59
2021/05/06 15:56:43;;;;;;;7.70;3.30;;;;;;;;;;5108497;27;20066;-59
2021/05/06 15:59:09;;;;;;;7.85;3.55;;;;;;;;;;5096699;27;20040;-55
2021/05/06 16:01:35;;;;;;;6.60;3.28;;;;;;;;;;5102551;27;20100;-56
2021/05/06 16:04:04;;;;;;;6.70;3.67;;;;;;;;;;5107813;27;20040;-58
2021/05/06 16:06:30;;;;;;;7.32;3.53;;;;;;;;;;5102596;27;20040;-54
2021/05/06 16:08:56;;;;;;;11.52;4.03;;;;;;;;;;5111861;27;20047;-55
2021/05/06 16:11:22;;;;;;;8.73;4.28;;;;;;;;;;5106388;28;20062;-52
2021/05/06 16:13:48;;;;;;;8.88;4.00;;;;;;;;;;5115992;27;20032;-52
2021/05/06 16:16:14;;;;;;;9.13;4.32;;;;;;;;;;5108225;27;20042;-59
2021/05/06 16:18:45;;;;;;;10.05;3.63;;;;;;;;;;5108445;27;20131;-55
2021/05/06 16:21:12;;;;;;;7.18;3.72;;;;;;;;;;5107266;27;20047;-59
2021/05/06 16:23:39;;;;;;;10.45;4.32;;;;;;;;;;5110295;27;20036;-57
2021/05/06 16:26:05;;;;;;;9.02;4.10;;;;;;;;;;5097200;28;20099;-56
2021/05/06 16:28:31;;;;;;;10.70;4.30;;;;;;;;;;5086616;28;20050;-54
2021/05/06 16:30:57;;;;;;;8.48;3.97;;;;;;;;;;5088890;27;20084;-57
2021/05/06 16:33:23;;;;;;;7.07;4.00;;;;;;;;;;5112253;27;20059;-58
2021/05/06 16:35:55;;;;;;;7.72;4.07;;;;;;;;;;5078115;28;20036;-58
2021/05/06 16:38:22;;;;;;;7.85;3.97;;;;;;;;;;5090355;28;20051;-59
2021/05/06 16:40:52;;;;;;;9.68;4.20;;;;;;;;;;5090899;28;20036;-58
2021/05/06 16:46:03;;;;;;;10.10;4.10;;;;;;;;;;5066000;28;20033;-57
2021/05/06 16:48:29;;;;;;;9.05;4.05;;;;;;;;;;5071160;28;20059;-58
2021/05/06 16:50:55;;;;;;;9.73;4.57;;;;;;;;;;5094555;28;20585;-59
2021/05/06 16:53:22;;;;;;;8.38;3.95;;;;;;;;;;5083084;27;20076;-58
2021/05/06 16:55:48;;;;;;;8.82;4.15;;;;;;;;;;5093651;28;20044;-61
2021/05/06 16:58:14;;;;;;;9.07;4.40;;;;;;;;;;5084160;28;20048;-59
2021/05/06 17:00:41;;;;;;;9.55;4.32;;;;;;;;;;5089309;28;20043;-62
2021/05/06 17:03:07;;;;;;;7.90;3.85;;;;;;;;;;5084310;28;20130;-59
2021/05/06 17:05:34;;;;;;;10.65;4.10;;;;;;;;;;5090451;28;20610;-60
2021/05/06 17:08:00;;;;;;;8.60;4.20;;;;;;;;;;5083397;28;20032;-55
2021/05/06 17:10:27;;;;;;;9.65;4.25;;;;;;;;;;5091204;27;20055;-57
2021/05/06 17:12:55;;;;;;;12.23;4.10;;;;;;;;;;5089880;28;20040;-58
2021/05/06 17:15:22;;;;;;;9.20;4.25;;;;;;;;;;5085836;28;20056;-62
2021/05/06 17:17:48;;;;;;;6.50;3.08;;;;;;;;;;5085346;28;20055;-61
2021/05/06 17:20:14;;;;;;;5.82;2.17;;;;;;;;;;5090148;28;20494;-58
2021/05/06 17:22:43;;;;;;;4.32;2.33;;;;;;;;;;5070166;28;20048;-56
2021/05/06 17:25:09;;;;;;;6.15;2.20;;;;;;;;;;5085765;28;20044;-58
2021/05/06 17:27:36;;;;;;;5.18;2.30;;;;;;;;;;5087618;28;20069;-58